sensor_id;sensor_type;location;lat;lon;timestamp;pressure;altitude;pressure_sealevel;temperature;humidity
18678;BME280;9469;51.114;13.914;2023-05-10T00:04:33;98323.72;;;12.81;70.39
18678;BME280;9469;51.114;13.914;2023-05-10T00:09:39;98317.72;;;12.64;70.86
18678;BME280;9469;51.114;13.914;2023-05-10T00:14:47;98315.06;;;12.55;70.99
18678;BME280;9469;51.114;13.914;2023-05-10T00:19:52;98309.56;;;12.60;70.85
18678;BME280;9469;51.114;13.914;2023-05-10T00:24:58;98308.47;;;12.61;70.39
18678;BME280;9469;51.114;13.914;2023-05-10T00:30:08;98303.53;;;12.43;71.10
18678;BME280;9469;51.114;13.914;2023-05-10T00:35:15;98302.47;;;12.35;71.36
18678;BME280;9469;51.114;13.914;2023-05-10T00:40:20;98289.91;;;12.36;71.37
18678;BME280;9469;51.114;13.914;2023-05-10T00:45:35;98295.47;;;12.22;71.67
18678;BME280;9469;51.114;13.914;2023-05-10T00:50:44;98298.75;;;12.28;71.44
18678;BME280;9469;51.114;13.914;2023-05-10T00:55:49;98295.97;;;12.15;71.56
18678;BME280;9469;51.114;13.914;2023-05-10T01:00:58;98286.13;;;11.99;72.81
18678;BME280;9469;51.114;13.914;2023-05-10T01:06:04;98280.31;;;12.05;72.20
18678;BME280;9469;51.114;13.914;2023-05-10T01:11:12;98277.72;;;11.88;73.09
18678;BME280;9469;51.114;13.914;2023-05-10T01:16:19;98274.13;;;11.84;73.18
18678;BME280;9469;51.114;13.914;2023-05-10T01:21:31;98279.00;;;11.74;73.81
18678;BME280;9469;51.114;13.914;2023-05-10T01:27:03;98274.13;;;11.84;73.59
18678;BME280;9469;51.114;13.914;2023-05-10T01:32:21;98276.03;;;11.75;73.96
18678;BME280;9469;51.114;13.914;2023-05-10T01:37:36;98278.38;;;11.77;74.30
18678;BME280;9469;51.114;13.914;2023-05-10T01:42:49;98271.78;;;11.66;74.67
18678;BME280;9469;51.114;13.914;2023-05-10T01:48:05;98267.88;;;11.63;75.03
18678;BME280;9469;51.114;13.914;2023-05-10T01:53:12;98270.19;;;11.65;75.11
18678;BME280;9469;51.114;13.914;2023-05-10T01:58:22;98269.28;;;11.69;75.12
18678;BME280;9469;51.114;13.914;2023-05-10T02:03:35;98265.66;;;11.65;75.25
18678;BME280;9469;51.114;13.914;2023-05-10T02:08:43;98275.41;;;11.61;75.63
18678;BME280;9469;51.114;13.914;2023-05-10T02:13:50;98278.25;;;11.39;76.70
18678;BME280;9469;51.114;13.914;2023-05-10T02:19:05;98265.25;;;11.46;76.70
18678;BME280;9469;51.114;13.914;2023-05-10T02:24:13;98269.03;;;11.19;77.81
18678;BME280;9469;51.114;13.914;2023-05-10T02:29:21;98259.94;;;11.29;77.75
18678;BME280;9469;51.114;13.914;2023-05-10T02:34:31;98264.94;;;11.22;78.06
18678;BME280;9469;51.114;13.914;2023-05-10T02:39:37;98270.28;;;11.13;78.62
18678;BME280;9469;51.114;13.914;2023-05-10T02:44:48;98271.53;;;11.24;78.58
18678;BME280;9469;51.114;13.914;2023-05-10T02:49:59;98262.16;;;11.10;79.21
18678;BME280;9469;51.114;13.914;2023-05-10T02:55:11;98280.47;;;11.11;79.53
18678;BME280;9469;51.114;13.914;2023-05-10T03:00:18;98271.22;;;11.09;79.76
18678;BME280;9469;51.114;13.914;2023-05-10T03:05:26;98265.28;;;11.03;80.23
18678;BME280;9469;51.114;13.914;2023-05-10T03:10:41;98260.09;;;11.07;80.37
18678;BME280;9469;51.114;13.914;2023-05-10T03:15:57;98261.50;;;10.96;80.76
18678;BME280;9469;51.114;13.914;2023-05-10T03:21:08;98263.25;;;10.83;81.39
18678;BME280;9469;51.114;13.914;2023-05-10T03:26:20;98265.91;;;10.83;81.57
18678;BME280;9469;51.114;13.914;2023-05-10T03:31:36;98264.78;;;10.75;82.25
18678;BME280;9469;51.114;13.914;2023-05-10T03:36:44;98270.56;;;10.69;82.66
18678;BME280;9469;51.114;13.914;2023-05-10T03:41:51;98271.34;;;10.69;82.77
18678;BME280;9469;51.114;13.914;2023-05-10T03:46:58;98267.59;;;10.70;82.66
18678;BME280;9469;51.114;13.914;2023-05-10T03:52:09;98270.25;;;10.79;82.39
18678;BME280;9469;51.114;13.914;2023-05-10T03:57:14;98266.19;;;10.81;82.23
18678;BME280;9469;51.114;13.914;2023-05-10T04:02:25;98268.41;;;10.97;82.08
18678;BME280;9469;51.114;13.914;2023-05-10T04:07:33;98265.91;;;10.92;81.99
18678;BME280;9469;51.114;13.914;2023-05-10T04:12:38;98274.81;;;10.96;82.13
18678;BME280;9469;51.114;13.914;2023-05-10T04:17:43;98266.81;;;11.38;80.71
18678;BME280;9469;51.114;13.914;2023-05-10T04:22:51;98283.28;;;11.32;80.97
18678;BME280;9469;51.114;13.914;2023-05-10T04:27:56;98263.97;;;11.69;79.36
18678;BME280;9469;51.114;13.914;2023-05-10T04:33:01;98270.53;;;11.80;79.09
18678;BME280;9469;51.114;13.914;2023-05-10T04:38:09;98274.50;;;12.70;75.37
18678;BME280;9469;51.114;13.914;2023-05-10T04:43:16;98264.66;;;13.12;73.95
18678;BME280;9469;51.114;13.914;2023-05-10T04:48:21;98267.31;;;13.12;72.48
18678;BME280;9469;51.114;13.914;2023-05-10T04:53:29;98262.97;;;13.08;73.14
18678;BME280;9469;51.114;13.914;2023-05-10T04:58:35;98259.50;;;13.60;71.71
18678;BME280;9469;51.114;13.914;2023-05-10T05:03:41;98257.78;;;14.01;69.47
18678;BME280;9469;51.114;13.914;2023-05-10T05:08:59;98255.03;;;15.09;67.34
18678;BME280;9469;51.114;13.914;2023-05-10T05:14:04;98254.78;;;14.75;68.38
18678;BME280;9469;51.114;13.914;2023-05-10T05:19:09;98257.94;;;14.65;68.48
18678;BME280;9469;51.114;13.914;2023-05-10T05:24:17;98251.44;;;14.66;68.26
18678;BME280;9469;51.114;13.914;2023-05-10T05:29:24;98249.38;;;16.29;63.78
18678;BME280;9469;51.114;13.914;2023-05-10T05:34:29;98249.03;;;16.81;63.39
18678;BME280;9469;51.114;13.914;2023-05-10T05:39:38;98256.41;;;15.59;65.75
18678;BME280;9469;51.114;13.914;2023-05-10T05:44:44;98248.44;;;17.06;61.41
18678;BME280;9469;51.114;13.914;2023-05-10T05:49:50;98243.66;;;16.81;63.11
18678;BME280;9469;51.114;13.914;2023-05-10T05:54:58;98243.34;;;17.59;60.88
18678;BME280;9469;51.114;13.914;2023-05-10T06:00:08;98236.66;;;16.10;63.25
18678;BME280;9469;51.114;13.914;2023-05-10T06:05:14;98230.47;;;16.57;62.67
18678;BME280;9469;51.114;13.914;2023-05-10T06:10:23;98244.25;;;16.24;62.65
18678;BME280;9469;51.114;13.914;2023-05-10T06:15:29;98245.97;;;17.36;60.95
18678;BME280;9469;51.114;13.914;2023-05-10T06:20:34;98244.84;;;17.79;59.95
18678;BME280;9469;51.114;13.914;2023-05-10T06:25:45;98236.97;;;17.48;59.92
18678;BME280;9469;51.114;13.914;2023-05-10T06:30:50;98248.66;;;19.65;56.62
18678;BME280;9469;51.114;13.914;2023-05-10T06:35:57;98254.09;;;19.05;57.19
18678;BME280;9469;51.114;13.914;2023-05-10T06:41:08;98259.50;;;19.05;57.70
18678;BME280;9469;51.114;13.914;2023-05-10T06:46:17;98250.63;;;20.12;55.81
18678;BME280;9469;51.114;13.914;2023-05-10T06:51:22;98253.69;;;18.25;58.62
18678;BME280;9469;51.114;13.914;2023-05-10T06:56:31;98248.69;;;19.68;56.80
18678;BME280;9469;51.114;13.914;2023-05-10T07:01:36;98258.44;;;19.13;58.05
18678;BME280;9469;51.114;13.914;2023-05-10T07:06:42;98252.59;;;19.08;57.68
18678;BME280;9469;51.114;13.914;2023-05-10T07:11:53;98255.75;;;18.84;58.90
18678;BME280;9469;51.114;13.914;2023-05-10T07:17:01;98248.03;;;18.82;58.73
18678;BME280;9469;51.114;13.914;2023-05-10T07:22:06;98244.41;;;19.64;57.62
18678;BME280;9469;51.114;13.914;2023-05-10T07:27:13;98245.81;;;18.39;59.74
18678;BME280;9469;51.114;13.914;2023-05-10T07:32:18;98248.59;;;18.42;59.78
18678;BME280;9469;51.114;13.914;2023-05-10T07:37:24;98252.25;;;18.53;60.48
18678;BME280;9469;51.114;13.914;2023-05-10T07:42:32;98244.47;;;19.04;59.34
18678;BME280;9469;51.114;13.914;2023-05-10T07:47:37;98251.59;;;18.15;60.83
18678;BME280;9469;51.114;13.914;2023-05-10T07:52:42;98253.97;;;18.42;60.48
18678;BME280;9469;51.114;13.914;2023-05-10T07:57:50;98257.56;;;18.50;60.94
18678;BME280;9469;51.114;13.914;2023-05-10T08:02:56;98251.28;;;19.24;59.17
18678;BME280;9469;51.114;13.914;2023-05-10T08:08:03;98246.25;;;18.41;60.47
18678;BME280;9469;51.114;13.914;2023-05-10T08:13:14;98249.56;;;19.79;58.99
18678;BME280;9469;51.114;13.914;2023-05-10T08:18:20;98255.91;;;19.27;59.48
18678;BME280;9469;51.114;13.914;2023-05-10T08:23:26;98245.50;;;19.59;59.15
18678;BME280;9469;51.114;13.914;2023-05-10T08:28:38;98257.81;;;19.57;59.04
18678;BME280;9469;51.114;13.914;2023-05-10T08:33:45;98256.19;;;19.19;59.20
18678;BME280;9469;51.114;13.914;2023-05-10T08:38:53;98265.59;;;19.65;59.57
18678;BME280;9469;51.114;13.914;2023-05-10T08:44:03;98267.34;;;19.47;60.26
18678;BME280;9469;51.114;13.914;2023-05-10T08:49:09;98264.13;;;20.55;58.92
18678;BME280;9469;51.114;13.914;2023-05-10T08:54:17;98282.88;;;19.27;59.59
18678;BME280;9469;51.114;13.914;2023-05-10T08:59:26;98292.16;;;19.96;59.46
18678;BME280;9469;51.114;13.914;2023-05-10T09:04:32;98281.75;;;19.62;59.33
18678;BME280;9469;51.114;13.914;2023-05-10T09:09:37;98288.59;;;20.29;57.98
18678;BME280;9469;51.114;13.914;2023-05-10T09:14:46;98291.59;;;19.80;58.93
18678;BME280;9469;51.114;13.914;2023-05-10T09:19:57;98305.88;;;19.81;58.86
18678;BME280;9469;51.114;13.914;2023-05-10T09:25:06;98290.69;;;20.06;58.54
18678;BME280;9469;51.114;13.914;2023-05-10T09:30:23;98300.16;;;19.53;59.77
18678;BME280;9469;51.114;13.914;2023-05-10T09:35:33;98289.69;;;19.81;59.05
18678;BME280;9469;51.114;13.914;2023-05-10T09:40:52;98297.53;;;20.88;57.94
18678;BME280;9469;51.114;13.914;2023-05-10T09:46:08;98307.97;;;20.38;57.92
18678;BME280;9469;51.114;13.914;2023-05-10T09:51:19;98309.44;;;20.80;57.65
18678;BME280;9469;51.114;13.914;2023-05-10T09:56:34;98305.06;;;20.61;58.16
18678;BME280;9469;51.114;13.914;2023-05-10T10:01:52;98307.09;;;21.39;58.13
18678;BME280;9469;51.114;13.914;2023-05-10T10:07:01;98298.53;;;21.23;56.01
18678;BME280;9469;51.114;13.914;2023-05-10T10:12:07;98300.00;;;21.10;56.89
18678;BME280;9469;51.114;13.914;2023-05-10T10:17:15;98299.59;;;20.54;57.70
18678;BME280;9469;51.114;13.914;2023-05-10T10:22:21;98302.38;;;21.26;56.22
18678;BME280;9469;51.114;13.914;2023-05-10T10:27:34;98297.06;;;21.47;55.96
18678;BME280;9469;51.114;13.914;2023-05-10T10:33:01;98293.00;;;21.06;57.30
18678;BME280;9469;51.114;13.914;2023-05-10T10:38:36;98293.94;;;21.38;57.67
18678;BME280;9469;51.114;13.914;2023-05-10T10:43:43;98289.34;;;21.49;56.83
18678;BME280;9469;51.114;13.914;2023-05-10T10:49:09;98298.31;;;21.74;55.82
18678;BME280;9469;51.114;13.914;2023-05-10T10:54:26;98291.25;;;21.34;55.27
18678;BME280;9469;51.114;13.914;2023-05-10T10:59:34;98297.47;;;21.49;56.48
18678;BME280;9469;51.114;13.914;2023-05-10T11:04:46;98294.50;;;21.00;56.72
18678;BME280;9469;51.114;13.914;2023-05-10T11:09:54;98281.59;;;21.40;57.31
18678;BME280;9469;51.114;13.914;2023-05-10T11:14:59;98305.56;;;21.38;56.91
18678;BME280;9469;51.114;13.914;2023-05-10T11:20:17;98282.78;;;21.54;56.52
18678;BME280;9469;51.114;13.914;2023-05-10T11:25:27;98289.00;;;21.61;56.48
18678;BME280;9469;51.114;13.914;2023-05-10T11:30:39;98295.03;;;21.23;55.75
18678;BME280;9469;51.114;13.914;2023-05-10T11:35:47;98303.19;;;21.33;56.63
18678;BME280;9469;51.114;13.914;2023-05-10T11:40:53;98300.31;;;21.98;56.81
18678;BME280;9469;51.114;13.914;2023-05-10T11:46:00;98305.09;;;21.26;56.82
18678;BME280;9469;51.114;13.914;2023-05-10T11:51:11;98300.72;;;22.00;56.29
18678;BME280;9469;51.114;13.914;2023-05-10T11:56:20;98307.66;;;21.94;55.81
18678;BME280;9469;51.114;13.914;2023-05-10T12:01:27;98302.50;;;21.58;56.91
18678;BME280;9469;51.114;13.914;2023-05-10T12:06:39;98305.34;;;21.89;56.13
18678;BME280;9469;51.114;13.914;2023-05-10T12:11:59;98306.97;;;22.36;56.53
18678;BME280;9469;51.114;13.914;2023-05-10T12:17:11;98312.75;;;22.28;55.89
18678;BME280;9469;51.114;13.914;2023-05-10T12:22:24;98307.34;;;22.13;54.64
18678;BME280;9469;51.114;13.914;2023-05-10T12:27:34;98322.00;;;22.05;54.75
18678;BME280;9469;51.114;13.914;2023-05-10T12:32:40;98311.03;;;21.63;55.89
18678;BME280;9469;51.114;13.914;2023-05-10T12:37:53;98310.75;;;21.89;55.32
18678;BME280;9469;51.114;13.914;2023-05-10T12:43:03;98305.75;;;22.12;54.75
18678;BME280;9469;51.114;13.914;2023-05-10T12:48:29;98312.38;;;22.47;55.51
18678;BME280;9469;51.114;13.914;2023-05-10T12:53:40;98318.94;;;22.18;55.55
18678;BME280;9469;51.114;13.914;2023-05-10T12:58:52;98309.66;;;22.47;55.40
18678;BME280;9469;51.114;13.914;2023-05-10T13:03:57;98319.28;;;22.05;54.82
18678;BME280;9469;51.114;13.914;2023-05-10T13:09:05;98308.09;;;22.46;55.09
18678;BME280;9469;51.114;13.914;2023-05-10T13:14:13;98321.69;;;22.60;54.23
18678;BME280;9469;51.114;13.914;2023-05-10T13:19:18;98320.47;;;22.04;54.97
18678;BME280;9469;51.114;13.914;2023-05-10T13:24:26;98308.50;;;22.69;53.99
18678;BME280;9469;51.114;13.914;2023-05-10T13:29:33;98320.88;;;22.13;54.61
18678;BME280;9469;51.114;13.914;2023-05-10T13:34:39;98310.03;;;22.56;53.54
18678;BME280;9469;51.114;13.914;2023-05-10T13:39:47;98305.38;;;22.28;54.18
18678;BME280;9469;51.114;13.914;2023-05-10T13:44:54;98301.53;;;22.36;54.92
18678;BME280;9469;51.114;13.914;2023-05-10T13:49:59;98303.88;;;22.69;53.83
18678;BME280;9469;51.114;13.914;2023-05-10T13:55:08;98302.69;;;22.28;55.12
18678;BME280;9469;51.114;13.914;2023-05-10T14:00:23;98308.09;;;22.35;55.23
18678;BME280;9469;51.114;13.914;2023-05-10T14:05:32;98296.50;;;22.21;54.55
18678;BME280;9469;51.114;13.914;2023-05-10T14:10:41;98311.50;;;21.79;55.91
18678;BME280;9469;51.114;13.914;2023-05-10T14:15:46;98300.75;;;22.11;55.42
18678;BME280;9469;51.114;13.914;2023-05-10T14:20:51;98300.72;;;21.86;55.85
18678;BME280;9469;51.114;13.914;2023-05-10T14:26:00;98301.00;;;21.67;55.86
18678;BME280;9469;51.114;13.914;2023-05-10T14:31:06;98305.66;;;21.74;56.54
18678;BME280;9469;51.114;13.914;2023-05-10T14:36:13;98301.09;;;22.09;56.31
18678;BME280;9469;51.114;13.914;2023-05-10T14:41:23;98304.09;;;21.69;57.38
18678;BME280;9469;51.114;13.914;2023-05-10T14:46:37;98305.69;;;21.77;56.82
18678;BME280;9469;51.114;13.914;2023-05-10T14:51:44;98307.13;;;21.43;58.02
18678;BME280;9469;51.114;13.914;2023-05-10T14:56:56;98304.06;;;21.59;57.56
18678;BME280;9469;51.114;13.914;2023-05-10T15:02:03;98302.91;;;21.56;57.11
18678;BME280;9469;51.114;13.914;2023-05-10T15:07:11;98305.25;;;21.61;57.74
18678;BME280;9469;51.114;13.914;2023-05-10T15:12:22;98314.13;;;21.58;57.52
18678;BME280;9469;51.114;13.914;2023-05-10T15:17:30;98319.56;;;21.62;57.53
18678;BME280;9469;51.114;13.914;2023-05-10T15:22:35;98314.25;;;21.90;57.74
18678;BME280;9469;51.114;13.914;2023-05-10T15:27:43;98317.59;;;21.62;56.98
18678;BME280;9469;51.114;13.914;2023-05-10T15:32:49;98317.69;;;21.80;56.77
18678;BME280;9469;51.114;13.914;2023-05-10T15:37:55;98319.09;;;21.49;57.15
18678;BME280;9469;51.114;13.914;2023-05-10T15:43:03;98325.91;;;21.11;65.02
18678;BME280;9469;51.114;13.914;2023-05-10T15:48:09;98323.66;;;20.69;71.74
18678;BME280;9469;51.114;13.914;2023-05-10T15:53:15;98340.63;;;20.66;73.66
18678;BME280;9469;51.114;13.914;2023-05-10T15:58:23;98340.19;;;20.57;74.42
18678;BME280;9469;51.114;13.914;2023-05-10T16:03:33;98346.72;;;20.53;76.19
18678;BME280;9469;51.114;13.914;2023-05-10T16:08:39;98345.78;;;20.38;78.18
18678;BME280;9469;51.114;13.914;2023-05-10T16:13:49;98352.13;;;20.56;77.65
18678;BME280;9469;51.114;13.914;2023-05-10T16:18:55;98355.91;;;20.08;80.04
18678;BME280;9469;51.114;13.914;2023-05-10T16:24:02;98355.44;;;19.99;80.03
18678;BME280;9469;51.114;13.914;2023-05-10T16:29:11;98355.09;;;19.71;80.00
18678;BME280;9469;51.114;13.914;2023-05-10T16:34:18;98354.44;;;19.48;82.70
18678;BME280;9469;51.114;13.914;2023-05-10T16:39:26;98368.09;;;19.62;81.71
18678;BME280;9469;51.114;13.914;2023-05-10T16:44:35;98379.00;;;19.69;81.56
18678;BME280;9469;51.114;13.914;2023-05-10T16:49:41;98377.41;;;19.68;81.78
18678;BME280;9469;51.114;13.914;2023-05-10T16:54:50;98387.13;;;19.43;83.49
18678;BME280;9469;51.114;13.914;2023-05-10T17:00:00;98391.50;;;19.24;84.62
18678;BME280;9469;51.114;13.914;2023-05-10T17:05:06;98387.81;;;19.36;84.46
18678;BME280;9469;51.114;13.914;2023-05-10T17:10:11;98388.50;;;19.33;83.88
18678;BME280;9469;51.114;13.914;2023-05-10T17:15:21;98392.09;;;19.41;84.62
18678;BME280;9469;51.114;13.914;2023-05-10T17:20:27;98407.25;;;19.49;83.84
18678;BME280;9469;51.114;13.914;2023-05-10T17:25:34;98404.22;;;19.01;85.87
18678;BME280;9469;51.114;13.914;2023-05-10T17:30:42;98407.75;;;18.79;88.65
18678;BME280;9469;51.114;13.914;2023-05-10T17:35:47;98412.81;;;18.84;87.82
18678;BME280;9469;51.114;13.914;2023-05-10T17:40:52;98409.22;;;19.25;86.23
18678;BME280;9469;51.114;13.914;2023-05-10T17:46:00;98419.66;;;19.53;85.92
18678;BME280;9469;51.114;13.914;2023-05-10T17:51:06;98412.63;;;19.22;87.46
18678;BME280;9469;51.114;13.914;2023-05-10T17:56:12;98417.22;;;19.45;86.62
18678;BME280;9469;51.114;13.914;2023-05-10T18:01:20;98424.97;;;18.97;88.06
18678;BME280;9469;51.114;13.914;2023-05-10T18:06:26;98432.69;;;18.34;92.18
18678;BME280;9469;51.114;13.914;2023-05-10T18:11:35;98427.44;;;18.60;90.64
18678;BME280;9469;51.114;13.914;2023-05-10T18:16:43;98440.53;;;18.62;90.40
18678;BME280;9469;51.114;13.914;2023-05-10T18:21:50;98441.31;;;18.63;89.39
18678;BME280;9469;51.114;13.914;2023-05-10T18:26:59;98445.41;;;18.34;89.88
18678;BME280;9469;51.114;13.914;2023-05-10T18:32:08;98455.31;;;18.30;90.36
18678;BME280;9469;51.114;13.914;2023-05-10T18:37:13;98448.00;;;18.30;90.50
18678;BME280;9469;51.114;13.914;2023-05-10T18:42:19;98465.81;;;18.54;89.30
18678;BME280;9469;51.114;13.914;2023-05-10T18:47:28;98457.72;;;18.35;90.54
18678;BME280;9469;51.114;13.914;2023-05-10T18:52:33;98462.19;;;18.27;91.42
18678;BME280;9469;51.114;13.914;2023-05-10T18:57:42;98473.09;;;17.96;91.00
18678;BME280;9469;51.114;13.914;2023-05-10T19:02:52;98477.59;;;17.38;93.79
18678;BME280;9469;51.114;13.914;2023-05-10T19:08:01;98480.13;;;17.15;95.79
18678;BME280;9469;51.114;13.914;2023-05-10T19:13:07;98475.41;;;17.28;94.93
18678;BME280;9469;51.114;13.914;2023-05-10T19:18:17;98485.28;;;17.90;92.13
18678;BME280;9469;51.114;13.914;2023-05-10T19:23:24;98493.81;;;18.11;90.27
18678;BME280;9469;51.114;13.914;2023-05-10T19:28:30;98493.63;;;17.66;92.93
18678;BME280;9469;51.114;13.914;2023-05-10T19:33:41;98490.88;;;17.31;95.07
18678;BME280;9469;51.114;13.914;2023-05-10T19:38:46;98496.59;;;17.30;95.49
18678;BME280;9469;51.114;13.914;2023-05-10T19:43:54;98489.38;;;17.49;94.50
18678;BME280;9469;51.114;13.914;2023-05-10T19:49:03;98500.31;;;16.94;97.26
18678;BME280;9469;51.114;13.914;2023-05-10T19:54:08;98491.84;;;17.23;96.60
18678;BME280;9469;51.114;13.914;2023-05-10T19:59:15;98499.56;;;16.93;97.23
18678;BME280;9469;51.114;13.914;2023-05-10T20:04:23;98510.78;;;16.68;98.90
18678;BME280;9469;51.114;13.914;2023-05-10T20:09:32;98504.91;;;16.50;100.00
18678;BME280;9469;51.114;13.914;2023-05-10T20:14:38;98508.13;;;16.83;97.85
18678;BME280;9469;51.114;13.914;2023-05-10T20:19:46;98511.47;;;16.65;99.41
18678;BME280;9469;51.114;13.914;2023-05-10T20:24:51;98508.63;;;16.45;100.00
18678;BME280;9469;51.114;13.914;2023-05-10T20:29:57;98510.41;;;16.26;100.00
18678;BME280;9469;51.114;13.914;2023-05-10T20:35:05;98522.44;;;15.92;100.00
18678;BME280;9469;51.114;13.914;2023-05-10T20:40:11;98516.84;;;15.97;100.00
18678;BME280;9469;51.114;13.914;2023-05-10T20:45:17;98516.34;;;15.67;100.00
18678;BME280;9469;51.114;13.914;2023-05-10T20:50:25;98520.69;;;15.72;100.00
18678;BME280;9469;51.114;13.914;2023-05-10T20:55:30;98522.97;;;15.58;100.00
18678;BME280;9469;51.114;13.914;2023-05-10T21:00:35;98513.47;;;15.48;100.00
18678;BME280;9469;51.114;13.914;2023-05-10T21:05:43;98523.25;;;15.32;100.00
18678;BME280;9469;51.114;13.914;2023-05-10T21:10:49;98511.78;;;15.20;100.00
18678;BME280;9469;51.114;13.914;2023-05-10T21:15:54;98511.31;;;15.05;100.00
18678;BME280;9469;51.114;13.914;2023-05-10T21:21:02;98518.47;;;15.01;100.00
18678;BME280;9469;51.114;13.914;2023-05-10T21:26:07;98515.84;;;14.81;100.00
18678;BME280;9469;51.114;13.914;2023-05-10T21:31:12;98517.22;;;14.99;100.00
18678;BME280;9469;51.114;13.914;2023-05-10T21:36:20;98516.66;;;15.05;99.50
18678;BME280;9469;51.114;13.914;2023-05-10T21:41:25;98520.81;;;15.15;97.42
18678;BME280;9469;51.114;13.914;2023-05-10T21:46:32;98513.63;;;14.95;97.30
18678;BME280;9469;51.114;13.914;2023-05-10T21:51:39;98517.41;;;14.70;99.18
18678;BME280;9469;51.114;13.914;2023-05-10T21:56:45;98520.66;;;14.87;99.47
18678;BME280;9469;51.114;13.914;2023-05-10T22:01:50;98521.56;;;14.91;100.00
18678;BME280;9469;51.114;13.914;2023-05-10T22:06:59;98521.09;;;14.89;100.00
18678;BME280;9469;51.114;13.914;2023-05-10T22:12:05;98521.47;;;15.12;97.72
18678;BME280;9469;51.114;13.914;2023-05-10T22:17:10;98527.94;;;15.11;98.64
18678;BME280;9469;51.114;13.914;2023-05-10T22:22:18;98525.03;;;15.16;98.78
18678;BME280;9469;51.114;13.914;2023-05-10T22:27:23;98528.66;;;14.75;100.00
18678;BME280;9469;51.114;13.914;2023-05-10T22:32:29;98522.34;;;14.47;100.00
18678;BME280;9469;51.114;13.914;2023-05-10T22:37:37;98534.34;;;14.41;100.00
18678;BME280;9469;51.114;13.914;2023-05-10T22:42:42;98525.22;;;14.21;99.93
18678;BME280;9469;51.114;13.914;2023-05-10T22:47:47;98534.31;;;14.20;100.00
18678;BME280;9469;51.114;13.914;2023-05-10T22:52:55;98527.75;;;14.18;99.51
18678;BME280;9469;51.114;13.914;2023-05-10T22:58:01;98526.13;;;14.05;100.00
18678;BME280;9469;51.114;13.914;2023-05-10T23:03:06;98528.06;;;13.96;100.00
18678;BME280;9469;51.114;13.914;2023-05-10T23:08:14;98534.66;;;14.19;97.70
18678;BME280;9469;51.114;13.914;2023-05-10T23:13:20;98531.78;;;14.24;99.04
18678;BME280;9469;51.114;13.914;2023-05-10T23:18:25;98537.88;;;14.12;97.61
18678;BME280;9469;51.114;13.914;2023-05-10T23:23:33;98539.72;;;14.00;97.06
18678;BME280;9469;51.114;13.914;2023-05-10T23:28:38;98543.59;;;13.82;95.40
18678;BME280;9469;51.114;13.914;2023-05-10T23:33:44;98539.94;;;13.65;99.91
18678;BME280;9469;51.114;13.914;2023-05-10T23:38:51;98548.88;;;13.40;100.00
18678;BME280;9469;51.114;13.914;2023-05-10T23:43:57;98539.94;;;13.36;100.00
18678;BME280;9469;51.114;13.914;2023-05-10T23:49:02;98541.94;;;13.39;100.00
18678;BME280;9469;51.114;13.914;2023-05-10T23:54:10;98538.84;;;13.29;100.00
18678;BME280;9469;51.114;13.914;2023-05-10T23:59:15;98534.16;;;13.26;100.00
